KAC295 EDDV-LGAV
Flight info
| Callsign | KAC295 |
|---|---|
| Flight time | N/A |
| Altitude | 36000 |
| Route | TOLTA1S/27R TOLTA DCT WERRA P605 ELNAT Z99 MASEK L604 SULUS DCT ESEGA DCT RADLY DCT NOVLO DCT KEB DCT ALELU DCT BITLA UN132 ROPOX |
| Aircraft | A332/H-SDE3GHIJ2J3J5M1RVWXY/LB2D1 |
Departure
| Time | N/A |
|---|---|
| Airport | Hannover Airport (EDDV) |
Arrival
| Time | 2026-05-03 21:19 |
|---|---|
| Airport | Athens Eleftherios Venizelos International Airport (LGAV) |
| Time | Latitude | Longitude | Altitude | Speed | Heading |
|---|---|---|---|---|---|
| 2026-05-03 20:15 | 43.78215 | 18.59805 | 37150 ft | 502 kts | 143° |
| 2026-05-03 20:15 | 43.72513 | 18.65381 | 37147 ft | 502 kts | 143° |
| 2026-05-03 20:16 | 43.66820 | 18.70968 | 37146 ft | 502 kts | 143° |
| 2026-05-03 20:16 | 43.61123 | 18.76557 | 37143 ft | 502 kts | 143° |
| 2026-05-03 20:17 | 43.55419 | 18.82136 | 37144 ft | 503 kts | 143° |
| 2026-05-03 20:17 | 43.49709 | 18.87704 | 37143 ft | 502 kts | 143° |
| 2026-05-03 20:18 | 43.44007 | 18.93250 | 37144 ft | 502 kts | 143° |
| 2026-05-03 20:18 | 43.38343 | 18.98748 | 37151 ft | 502 kts | 143° |
| 2026-05-03 20:19 | 43.32636 | 19.04275 | 37150 ft | 502 kts | 143° |
| 2026-05-03 20:19 | 43.26924 | 19.09796 | 37147 ft | 502 kts | 143° |
| 2026-05-03 20:20 | 43.21204 | 19.15311 | 37159 ft | 503 kts | 143° |
| 2026-05-03 20:20 | 43.15480 | 19.20817 | 37152 ft | 503 kts | 143° |
| 2026-05-03 20:21 | 43.09753 | 19.26313 | 37144 ft | 503 kts | 143° |
| 2026-05-03 20:21 | 43.04018 | 19.31801 | 37135 ft | 503 kts | 143° |
| 2026-05-03 20:22 | 42.98283 | 19.37279 | 37152 ft | 503 kts | 143° |
| 2026-05-03 20:22 | 42.92546 | 19.42745 | 37143 ft | 503 kts | 143° |
| 2026-05-03 20:23 | 42.86797 | 19.48211 | 37160 ft | 504 kts | 143° |
| 2026-05-03 20:23 | 42.81034 | 19.53678 | 37156 ft | 505 kts | 143° |
| 2026-05-03 20:24 | 42.75271 | 19.59130 | 37156 ft | 505 kts | 143° |
| 2026-05-03 20:24 | 42.70477 | 19.63656 | 37165 ft | 505 kts | 143° |
| 2026-05-03 20:25 | 42.64706 | 19.69093 | 37164 ft | 505 kts | 143° |
| 2026-05-03 20:25 | 42.58929 | 19.74525 | 37154 ft | 505 kts | 143° |
| 2026-05-03 20:26 | 42.53149 | 19.79945 | 37192 ft | 505 kts | 143° |
| 2026-05-03 20:26 | 42.47370 | 19.85364 | 37159 ft | 504 kts | 143° |
| 2026-05-03 20:27 | 42.41651 | 19.90860 | 37156 ft | 505 kts | 142° |
| 2026-05-03 20:27 | 42.35941 | 19.96409 | 37157 ft | 505 kts | 142° |
| 2026-05-03 20:28 | 42.30231 | 20.01932 | 37157 ft | 505 kts | 142° |
| 2026-05-03 20:28 | 42.24510 | 20.07439 | 37155 ft | 505 kts | 142° |
| 2026-05-03 20:29 | 42.18831 | 20.12891 | 37163 ft | 506 kts | 142° |
| 2026-05-03 20:29 | 42.13073 | 20.18405 | 37160 ft | 507 kts | 142° |
| 2026-05-03 20:30 | 42.07320 | 20.23901 | 37165 ft | 507 kts | 142° |
| 2026-05-03 20:30 | 42.01563 | 20.29391 | 37175 ft | 507 kts | 142° |
| 2026-05-03 20:31 | 41.95802 | 20.34871 | 37171 ft | 508 kts | 142° |
| 2026-05-03 20:31 | 41.90013 | 20.40365 | 37170 ft | 510 kts | 142° |
| 2026-05-03 20:32 | 41.84220 | 20.45849 | 37169 ft | 510 kts | 142° |
| 2026-05-03 20:32 | 41.78417 | 20.51329 | 37179 ft | 509 kts | 142° |
| 2026-05-03 20:33 | 41.72621 | 20.56792 | 37174 ft | 510 kts | 142° |
| 2026-05-03 20:33 | 41.66811 | 20.62256 | 37180 ft | 511 kts | 142° |
| 2026-05-03 20:34 | 41.60994 | 20.67717 | 37173 ft | 511 kts | 142° |
| 2026-05-03 20:34 | 41.55173 | 20.73167 | 37179 ft | 511 kts | 142° |
| 2026-05-03 20:35 | 41.49352 | 20.78606 | 37174 ft | 511 kts | 143° |
| 2026-05-03 20:35 | 41.43545 | 20.84020 | 37157 ft | 513 kts | 142° |
| 2026-05-03 20:36 | 41.37690 | 20.89464 | 37152 ft | 514 kts | 142° |
| 2026-05-03 20:36 | 41.31827 | 20.94904 | 37143 ft | 514 kts | 142° |
| 2026-05-03 20:37 | 41.25959 | 21.00337 | 37145 ft | 514 kts | 143° |
| 2026-05-03 20:37 | 41.20081 | 21.05766 | 37150 ft | 515 kts | 143° |
| 2026-05-03 20:38 | 41.14194 | 21.11193 | 37160 ft | 515 kts | 143° |
| 2026-05-03 20:38 | 41.08310 | 21.16605 | 37173 ft | 515 kts | 143° |
| 2026-05-03 20:39 | 41.02415 | 21.22015 | 37177 ft | 516 kts | 143° |
| 2026-05-03 20:39 | 40.96509 | 21.27424 | 37172 ft | 517 kts | 143° |
| 2026-05-03 20:40 | 40.90583 | 21.32838 | 37175 ft | 518 kts | 143° |
| 2026-05-03 20:40 | 40.84708 | 21.38225 | 37176 ft | 517 kts | 142° |
| 2026-05-03 20:41 | 40.78832 | 21.43700 | 37185 ft | 517 kts | 142° |
| 2026-05-03 20:41 | 40.72961 | 21.49175 | 37180 ft | 517 kts | 142° |
| 2026-05-03 20:42 | 40.67081 | 21.54638 | 37173 ft | 517 kts | 142° |
| 2026-05-03 20:42 | 40.61198 | 21.60084 | 37178 ft | 517 kts | 142° |
| 2026-05-03 20:43 | 40.55311 | 21.65520 | 37171 ft | 517 kts | 142° |
| 2026-05-03 20:43 | 40.49420 | 21.70947 | 37168 ft | 517 kts | 143° |
| 2026-05-03 20:44 | 40.43524 | 21.76368 | 37162 ft | 517 kts | 143° |
| 2026-05-03 20:44 | 40.37626 | 21.81778 | 37168 ft | 517 kts | 143° |
| 2026-05-03 20:45 | 40.31744 | 21.87161 | 37148 ft | 515 kts | 143° |
| 2026-05-03 20:45 | 40.25871 | 21.92527 | 37157 ft | 515 kts | 143° |
| 2026-05-03 20:46 | 40.19981 | 21.97896 | 37165 ft | 517 kts | 143° |
| 2026-05-03 20:46 | 40.14072 | 22.03271 | 37171 ft | 517 kts | 143° |
| 2026-05-03 20:47 | 40.08201 | 22.08599 | 37164 ft | 517 kts | 143° |
| 2026-05-03 20:47 | 40.02285 | 22.13956 | 37194 ft | 517 kts | 143° |
| 2026-05-03 20:47 | 39.99333 | 22.16624 | 37081 ft | 517 kts | 143° |
| 2026-05-03 20:48 | 39.96389 | 22.19282 | 36885 ft | 511 kts | 143° |
| 2026-05-03 20:48 | 39.93495 | 22.21892 | 36619 ft | 501 kts | 143° |
| 2026-05-03 20:48 | 39.90642 | 22.24464 | 35943 ft | 498 kts | 143° |
| 2026-05-03 20:48 | 39.87803 | 22.27025 | 35263 ft | 495 kts | 143° |
| 2026-05-03 20:49 | 39.84976 | 22.29572 | 34590 ft | 495 kts | 143° |
| 2026-05-03 20:49 | 39.82134 | 22.32129 | 33868 ft | 498 kts | 143° |
| 2026-05-03 20:49 | 39.79271 | 22.34699 | 33096 ft | 502 kts | 142° |
| 2026-05-03 20:49 | 39.76388 | 22.37283 | 32384 ft | 505 kts | 142° |
| 2026-05-03 20:50 | 39.73488 | 22.39878 | 31646 ft | 508 kts | 142° |
| 2026-05-03 20:50 | 39.70562 | 22.42491 | 30903 ft | 511 kts | 142° |
| 2026-05-03 20:50 | 39.67629 | 22.45107 | 30062 ft | 513 kts | 142° |
| 2026-05-03 20:50 | 39.64686 | 22.47731 | 29201 ft | 513 kts | 142° |
| 2026-05-03 20:51 | 39.61754 | 22.50342 | 28376 ft | 507 kts | 142° |
| 2026-05-03 20:51 | 39.58890 | 22.52888 | 27906 ft | 492 kts | 143° |
| 2026-05-03 20:51 | 39.56083 | 22.55381 | 27379 ft | 488 kts | 143° |
| 2026-05-03 20:51 | 39.53284 | 22.57870 | 26833 ft | 487 kts | 143° |
| 2026-05-03 20:52 | 39.50509 | 22.60335 | 26293 ft | 479 kts | 143° |
| 2026-05-03 20:52 | 39.47779 | 22.62759 | 25799 ft | 475 kts | 143° |
| 2026-05-03 20:52 | 39.45060 | 22.65172 | 25246 ft | 472 kts | 143° |
| 2026-05-03 20:52 | 39.42364 | 22.67561 | 24733 ft | 465 kts | 143° |
| 2026-05-03 20:53 | 39.39727 | 22.69895 | 24223 ft | 456 kts | 143° |
| 2026-05-03 20:53 | 39.37119 | 22.72201 | 23681 ft | 454 kts | 144° |
| 2026-05-03 20:53 | 39.34518 | 22.74500 | 23092 ft | 451 kts | 144° |
| 2026-05-03 20:53 | 39.31957 | 22.76760 | 22600 ft | 440 kts | 144° |
| 2026-05-03 20:54 | 39.29472 | 22.78952 | 22114 ft | 439 kts | 144° |
| 2026-05-03 20:54 | 39.24427 | 22.83397 | 21075 ft | 433 kts | 144° |
| 2026-05-03 20:54 | 39.21978 | 22.85551 | 20582 ft | 430 kts | 144° |
| 2026-05-03 20:55 | 39.19518 | 22.87714 | 20083 ft | 427 kts | 144° |
| 2026-05-03 20:55 | 39.17073 | 22.89861 | 19577 ft | 423 kts | 144° |
| 2026-05-03 20:55 | 39.14647 | 22.91989 | 19104 ft | 420 kts | 144° |
| 2026-05-03 20:55 | 39.12245 | 22.94095 | 18623 ft | 416 kts | 145° |
| 2026-05-03 20:56 | 39.09861 | 22.96183 | 18104 ft | 413 kts | 145° |
| 2026-05-03 20:56 | 39.07499 | 22.98250 | 17613 ft | 410 kts | 144° |
| 2026-05-03 20:56 | 39.05142 | 23.00312 | 17147 ft | 409 kts | 144° |
| 2026-05-03 20:56 | 39.02790 | 23.02369 | 16665 ft | 407 kts | 144° |
| 2026-05-03 20:57 | 39.00456 | 23.04407 | 16205 ft | 404 kts | 144° |
| 2026-05-03 20:57 | 38.98137 | 23.06431 | 15752 ft | 402 kts | 145° |
| 2026-05-03 20:57 | 38.95831 | 23.08443 | 15269 ft | 400 kts | 145° |
| 2026-05-03 20:57 | 38.93537 | 23.10440 | 14814 ft | 398 kts | 145° |
| 2026-05-03 20:58 | 38.91250 | 23.12431 | 14359 ft | 397 kts | 145° |
| 2026-05-03 20:58 | 38.88966 | 23.14418 | 13876 ft | 396 kts | 145° |
| 2026-05-03 20:58 | 38.86690 | 23.16396 | 13379 ft | 394 kts | 145° |
| 2026-05-03 20:58 | 38.84437 | 23.18352 | 12896 ft | 388 kts | 145° |
| 2026-05-03 20:59 | 38.82217 | 23.20279 | 12476 ft | 383 kts | 145° |
| 2026-05-03 20:59 | 38.80019 | 23.22185 | 12007 ft | 380 kts | 145° |
| 2026-05-03 20:59 | 38.77834 | 23.24077 | 11579 ft | 377 kts | 145° |
| 2026-05-03 20:59 | 38.75701 | 23.25923 | 11475 ft | 363 kts | 145° |
| 2026-05-03 21:00 | 38.73676 | 23.27670 | 11365 ft | 349 kts | 146° |
| 2026-05-03 21:00 | 38.72999 | 23.28254 | 11310 ft | 345 kts | 146° |
| 2026-05-03 21:00 | 38.69770 | 23.31039 | 11067 ft | 328 kts | 145° |
| 2026-05-03 21:00 | 38.67907 | 23.32648 | 10925 ft | 318 kts | 145° |
| 2026-05-03 21:01 | 38.66099 | 23.34213 | 10788 ft | 309 kts | 145° |
| 2026-05-03 21:01 | 38.64342 | 23.35734 | 10627 ft | 302 kts | 145° |
| 2026-05-03 21:01 | 38.62624 | 23.37221 | 10514 ft | 295 kts | 145° |
| 2026-05-03 21:01 | 38.60944 | 23.38674 | 10300 ft | 291 kts | 145° |
| 2026-05-03 21:02 | 38.59260 | 23.40129 | 9944 ft | 293 kts | 145° |
| 2026-05-03 21:02 | 38.57570 | 23.41585 | 9650 ft | 292 kts | 145° |
| 2026-05-03 21:02 | 38.55888 | 23.43031 | 9375 ft | 291 kts | 145° |
| 2026-05-03 21:02 | 38.54210 | 23.44472 | 9073 ft | 290 kts | 145° |
| 2026-05-03 21:03 | 38.52541 | 23.45904 | 8781 ft | 289 kts | 144° |
| 2026-05-03 21:03 | 38.50876 | 23.47332 | 8496 ft | 288 kts | 144° |
| 2026-05-03 21:03 | 38.49218 | 23.48753 | 8225 ft | 287 kts | 144° |
| 2026-05-03 21:03 | 38.47560 | 23.50174 | 7917 ft | 287 kts | 144° |
| 2026-05-03 21:04 | 38.45901 | 23.51596 | 7627 ft | 288 kts | 144° |
| 2026-05-03 21:04 | 38.44239 | 23.53020 | 7332 ft | 288 kts | 144° |
| 2026-05-03 21:04 | 38.42573 | 23.54445 | 7039 ft | 288 kts | 144° |
| 2026-05-03 21:04 | 38.40927 | 23.55851 | 6750 ft | 289 kts | 143° |
| 2026-05-03 21:05 | 38.39235 | 23.57296 | 6437 ft | 289 kts | 143° |
| 2026-05-03 21:05 | 38.37582 | 23.58707 | 6141 ft | 289 kts | 143° |
| 2026-05-03 21:05 | 38.35913 | 23.60130 | 5843 ft | 288 kts | 143° |
| 2026-05-03 21:05 | 38.34253 | 23.61545 | 5551 ft | 285 kts | 143° |
| 2026-05-03 21:06 | 38.32609 | 23.62947 | 5280 ft | 284 kts | 144° |
| 2026-05-03 21:06 | 38.30982 | 23.64334 | 5421 ft | 280 kts | 143° |
| 2026-05-03 21:06 | 38.29343 | 23.65732 | 5851 ft | 287 kts | 143° |
| 2026-05-03 21:06 | 38.27670 | 23.67159 | 6561 ft | 291 kts | 143° |
| 2026-05-03 21:07 | 38.25980 | 23.68596 | 7261 ft | 294 kts | 144° |
| 2026-05-03 21:07 | 38.24275 | 23.70045 | 7873 ft | 296 kts | 144° |
| 2026-05-03 21:07 | 38.22554 | 23.71507 | 8157 ft | 298 kts | 145° |
| 2026-05-03 21:07 | 38.20831 | 23.72967 | 8174 ft | 299 kts | 144° |
| 2026-05-03 21:08 | 38.19102 | 23.74434 | 8164 ft | 299 kts | 144° |
| 2026-05-03 21:08 | 38.17368 | 23.75900 | 8172 ft | 299 kts | 145° |
| 2026-05-03 21:08 | 38.15617 | 23.77318 | 8163 ft | 299 kts | 146° |
| 2026-05-03 21:08 | 38.13854 | 23.78712 | 8167 ft | 299 kts | 147° |
| 2026-05-03 21:09 | 38.11983 | 23.79833 | 8164 ft | 300 kts | 169° |
| 2026-05-03 21:09 | 38.09928 | 23.79669 | 8164 ft | 295 kts | 203° |
| 2026-05-03 21:09 | 38.08062 | 23.78586 | 8156 ft | 298 kts | 206° |
| 2026-05-03 21:09 | 38.06090 | 23.77710 | 8158 ft | 302 kts | 198° |
| 2026-05-03 21:10 | 38.04062 | 23.77010 | 8161 ft | 302 kts | 198° |
| 2026-05-03 21:10 | 38.02044 | 23.76274 | 8161 ft | 302 kts | 198° |
| 2026-05-03 21:10 | 38.00057 | 23.75547 | 8159 ft | 301 kts | 199° |
| 2026-05-03 21:10 | 37.98045 | 23.74816 | 8147 ft | 301 kts | 198° |
| 2026-05-03 21:11 | 37.96038 | 23.74086 | 8158 ft | 298 kts | 198° |
| 2026-05-03 21:11 | 37.94072 | 23.73281 | 8161 ft | 296 kts | 203° |
| 2026-05-03 21:11 | 37.92145 | 23.72341 | 8161 ft | 296 kts | 204° |
| 2026-05-03 21:11 | 37.90225 | 23.71383 | 7964 ft | 298 kts | 204° |
| 2026-05-03 21:12 | 37.88262 | 23.70481 | 7532 ft | 301 kts | 197° |
| 2026-05-03 21:12 | 37.86194 | 23.70096 | 7210 ft | 299 kts | 184° |
| 2026-05-03 21:12 | 37.84134 | 23.70098 | 6758 ft | 295 kts | 177° |
| 2026-05-03 21:12 | 37.82091 | 23.70327 | 6197 ft | 294 kts | 173° |
| 2026-05-03 21:13 | 37.80066 | 23.70686 | 5661 ft | 293 kts | 171° |
| 2026-05-03 21:13 | 37.78104 | 23.71297 | 5051 ft | 290 kts | 152° |
| 2026-05-03 21:13 | 37.76603 | 23.72824 | 4751 ft | 269 kts | 122° |
| 2026-05-03 21:13 | 37.75770 | 23.74826 | 4545 ft | 248 kts | 103° |
| 2026-05-03 21:14 | 37.75572 | 23.76867 | 4353 ft | 223 kts | 75° |
| 2026-05-03 21:14 | 37.76153 | 23.78559 | 4080 ft | 204 kts | 50° |
| 2026-05-03 21:14 | 37.77108 | 23.79830 | 3728 ft | 197 kts | 37° |
| 2026-05-03 21:14 | 37.78191 | 23.80885 | 3364 ft | 197 kts | 33° |
| 2026-05-03 21:15 | 37.79279 | 23.81912 | 3225 ft | 188 kts | 34° |
| 2026-05-03 21:15 | 37.79951 | 23.82552 | 3216 ft | 178 kts | 34° |
| 2026-05-03 21:15 | 37.81257 | 23.83791 | 3144 ft | 171 kts | 33° |
| 2026-05-03 21:15 | 37.81881 | 23.84373 | 3008 ft | 167 kts | 33° |
| 2026-05-03 21:16 | 37.82798 | 23.85237 | 2764 ft | 162 kts | 34° |
| 2026-05-03 21:16 | 37.83678 | 23.86078 | 2555 ft | 154 kts | 34° |
| 2026-05-03 21:16 | 37.84506 | 23.86867 | 2327 ft | 143 kts | 32° |
| 2026-05-03 21:16 | 37.85275 | 23.87597 | 2134 ft | 135 kts | 32° |
| 2026-05-03 21:17 | 37.86020 | 23.88304 | 1945 ft | 134 kts | 33° |
| 2026-05-03 21:17 | 37.86767 | 23.89013 | 1773 ft | 135 kts | 34° |
| 2026-05-03 21:17 | 37.87529 | 23.89738 | 1566 ft | 137 kts | 32° |
| 2026-05-03 21:17 | 37.88300 | 23.90472 | 1394 ft | 140 kts | 33° |
| 2026-05-03 21:18 | 37.89069 | 23.91206 | 1178 ft | 138 kts | 33° |
| 2026-05-03 21:18 | 37.89843 | 23.91942 | 996 ft | 141 kts | 32° |
| 2026-05-03 21:18 | 37.90639 | 23.92697 | 779 ft | 145 kts | 35° |
| 2026-05-03 21:18 | 37.91458 | 23.93480 | 565 ft | 148 kts | 35° |
| 2026-05-03 21:19 | 37.92279 | 23.94262 | 393 ft | 148 kts | 34° |
| 2026-05-03 21:19 | 37.93091 | 23.95040 | 294 ft | 147 kts | 34° |
| 2026-05-03 21:19 | 37.93861 | 23.95760 | 280 ft | 122 kts | 37° |
| 2026-05-03 21:19 | 37.94348 | 23.96220 | 275 ft | 49 kts | 36° |
| 2026-05-03 21:20 | 37.94561 | 23.96318 | 274 ft | 31 kts | 7° |
| 2026-05-03 21:20 | 37.94616 | 23.96326 | 274 ft | 0 kts | 6° |
| 2026-05-03 21:22 | 37.94617 | 23.96326 | 274 ft | 2 kts | 6° |
| 2026-05-03 21:22 | 37.94657 | 23.96332 | 273 ft | 10 kts | 6° |
| 2026-05-03 21:22 | 37.94686 | 23.96287 | 273 ft | 9 kts | 255° |
| 2026-05-03 21:23 | 37.94634 | 23.96217 | 277 ft | 13 kts | 224° |
| 2026-05-03 21:23 | 37.94588 | 23.96171 | 275 ft | 9 kts | 217° |
| 2026-05-03 21:23 | 37.94522 | 23.96109 | 276 ft | 14 kts | 216° |
| 2026-05-03 21:23 | 37.94436 | 23.96027 | 277 ft | 17 kts | 217° |
| 2026-05-03 21:24 | 37.94338 | 23.95932 | 278 ft | 18 kts | 218° |
| 2026-05-03 21:24 | 37.94226 | 23.95827 | 279 ft | 22 kts | 216° |
| 2026-05-03 21:24 | 37.94105 | 23.95715 | 280 ft | 20 kts | 217° |
| 2026-05-03 21:24 | 37.94094 | 23.95582 | 281 ft | 14 kts | 262° |
| 2026-05-03 21:25 | 37.94031 | 23.95499 | 287 ft | 13 kts | 218° |
| 2026-05-03 21:25 | 37.93960 | 23.95432 | 282 ft | 13 kts | 217° |
| 2026-05-03 21:25 | 37.93901 | 23.95356 | 283 ft | 12 kts | 242° |
| 2026-05-03 21:25 | 37.93871 | 23.95266 | 284 ft | 9 kts | 247° |
| 2026-05-03 21:26 | 37.93843 | 23.95204 | 284 ft | 8 kts | 229° |
| 2026-05-03 21:26 | 37.93801 | 23.95160 | 285 ft | 8 kts | 219° |
| 2026-05-03 21:26 | 37.93757 | 23.95117 | 285 ft | 8 kts | 216° |
| 2026-05-03 21:26 | 37.93712 | 23.95076 | 285 ft | 8 kts | 216° |
| 2026-05-03 21:27 | 37.93666 | 23.95033 | 286 ft | 8 kts | 216° |
| 2026-05-03 21:27 | 37.93619 | 23.94989 | 286 ft | 8 kts | 217° |
| 2026-05-03 21:27 | 37.93573 | 23.94944 | 287 ft | 8 kts | 218° |
| 2026-05-03 21:27 | 37.93526 | 23.94898 | 287 ft | 9 kts | 217° |
| 2026-05-03 21:28 | 37.93478 | 23.94852 | 290 ft | 8 kts | 221° |
| 2026-05-03 21:28 | 37.93480 | 23.94809 | 288 ft | 4 kts | 310° |
| 2026-05-03 21:28 | 37.93498 | 23.94782 | 289 ft | 2 kts | 310° |
| 2026-05-03 21:28 | 37.93507 | 23.94769 | 288 ft | 2 kts | 311° |
| 2026-05-03 21:29 | 37.93514 | 23.94758 | 288 ft | 1 kts | 311° |
| 2026-05-03 21:29 | 37.93516 | 23.94755 | 288 ft | 0 kts | 309° |